sensor_id;sensor_type;location;lat;lon;timestamp;temperature;humidity
4647;DHT22;2336;47.822;7.564;2023-08-30T00:00:26;15.10;99.90
4647;DHT22;2336;47.822;7.564;2023-08-30T00:02:53;15.00;99.90
4647;DHT22;2336;47.822;7.564;2023-08-30T00:05:20;15.00;99.90
4647;DHT22;2336;47.822;7.564;2023-08-30T00:07:46;15.00;99.90
4647;DHT22;2336;47.822;7.564;2023-08-30T00:10:13;15.00;99.90
4647;DHT22;2336;47.822;7.564;2023-08-30T00:12:40;15.00;99.90
4647;DHT22;2336;47.822;7.564;2023-08-30T00:15:08;14.90;99.90
4647;DHT22;2336;47.822;7.564;2023-08-30T00:17:36;14.90;99.90
4647;DHT22;2336;47.822;7.564;2023-08-30T00:20:03;14.90;99.90
4647;DHT22;2336;47.822;7.564;2023-08-30T00:22:32;14.90;99.90
4647;DHT22;2336;47.822;7.564;2023-08-30T00:24:59;14.90;99.90
4647;DHT22;2336;47.822;7.564;2023-08-30T00:27:26;14.90;99.90
4647;DHT22;2336;47.822;7.564;2023-08-30T00:29:52;14.90;99.90
4647;DHT22;2336;47.822;7.564;2023-08-30T00:32:19;14.90;99.90
4647;DHT22;2336;47.822;7.564;2023-08-30T00:34:49;14.90;99.90
4647;DHT22;2336;47.822;7.564;2023-08-30T00:37:16;14.90;99.90
4647;DHT22;2336;47.822;7.564;2023-08-30T00:39:43;14.90;99.90
4647;DHT22;2336;47.822;7.564;2023-08-30T00:42:10;14.80;99.90
4647;DHT22;2336;47.822;7.564;2023-08-30T00:44:37;14.80;99.90
4647;DHT22;2336;47.822;7.564;2023-08-30T00:47:04;14.90;99.90
4647;DHT22;2336;47.822;7.564;2023-08-30T00:49:31;14.80;99.90
4647;DHT22;2336;47.822;7.564;2023-08-30T00:52:02;14.80;99.90
4647;DHT22;2336;47.822;7.564;2023-08-30T00:54:29;14.90;99.90
4647;DHT22;2336;47.822;7.564;2023-08-30T00:56:56;14.90;99.90
4647;DHT22;2336;47.822;7.564;2023-08-30T00:59:24;14.90;99.90
4647;DHT22;2336;47.822;7.564;2023-08-30T01:01:51;14.90;99.90
4647;DHT22;2336;47.822;7.564;2023-08-30T01:04:19;14.90;99.90
4647;DHT22;2336;47.822;7.564;2023-08-30T01:06:46;14.90;99.90
4647;DHT22;2336;47.822;7.564;2023-08-30T01:09:15;14.90;99.90
4647;DHT22;2336;47.822;7.564;2023-08-30T01:11:48;14.90;99.90
4647;DHT22;2336;47.822;7.564;2023-08-30T01:14:20;14.90;99.90
4647;DHT22;2336;47.822;7.564;2023-08-30T01:16:48;14.90;99.90
4647;DHT22;2336;47.822;7.564;2023-08-30T01:19:26;14.80;99.90
4647;DHT22;2336;47.822;7.564;2023-08-30T01:22:03;14.80;99.90
4647;DHT22;2336;47.822;7.564;2023-08-30T01:24:40;14.80;99.90
4647;DHT22;2336;47.822;7.564;2023-08-30T01:27:10;14.80;99.90
4647;DHT22;2336;47.822;7.564;2023-08-30T01:29:38;14.80;99.90
4647;DHT22;2336;47.822;7.564;2023-08-30T01:32:08;14.80;99.90
4647;DHT22;2336;47.822;7.564;2023-08-30T01:34:37;14.80;99.90
4647;DHT22;2336;47.822;7.564;2023-08-30T01:37:05;14.80;99.90
4647;DHT22;2336;47.822;7.564;2023-08-30T01:39:33;14.80;99.90
4647;DHT22;2336;47.822;7.564;2023-08-30T01:42:01;14.80;99.90
4647;DHT22;2336;47.822;7.564;2023-08-30T01:44:30;14.80;99.90
4647;DHT22;2336;47.822;7.564;2023-08-30T01:46:59;14.80;99.90
4647;DHT22;2336;47.822;7.564;2023-08-30T01:49:28;14.80;99.90
4647;DHT22;2336;47.822;7.564;2023-08-30T01:51:57;14.80;99.90
4647;DHT22;2336;47.822;7.564;2023-08-30T01:54:24;14.80;99.90
4647;DHT22;2336;47.822;7.564;2023-08-30T01:56:51;14.80;99.90
4647;DHT22;2336;47.822;7.564;2023-08-30T01:59:18;14.70;99.90
4647;DHT22;2336;47.822;7.564;2023-08-30T02:01:46;14.70;99.90
4647;DHT22;2336;47.822;7.564;2023-08-30T02:04:13;14.70;99.90
4647;DHT22;2336;47.822;7.564;2023-08-30T02:06:48;14.70;99.90
4647;DHT22;2336;47.822;7.564;2023-08-30T02:09:19;14.70;99.90
4647;DHT22;2336;47.822;7.564;2023-08-30T02:11:49;14.70;99.90
4647;DHT22;2336;47.822;7.564;2023-08-30T02:14:18;14.70;99.90
4647;DHT22;2336;47.822;7.564;2023-08-30T02:16:48;14.70;99.90
4647;DHT22;2336;47.822;7.564;2023-08-30T02:19:15;14.70;99.90
4647;DHT22;2336;47.822;7.564;2023-08-30T02:21:46;14.70;99.90
4647;DHT22;2336;47.822;7.564;2023-08-30T02:24:13;14.70;99.90
4647;DHT22;2336;47.822;7.564;2023-08-30T02:26:40;14.70;99.90
4647;DHT22;2336;47.822;7.564;2023-08-30T02:29:06;14.60;99.90
4647;DHT22;2336;47.822;7.564;2023-08-30T02:31:35;14.60;99.90
4647;DHT22;2336;47.822;7.564;2023-08-30T02:34:03;14.60;99.90
4647;DHT22;2336;47.822;7.564;2023-08-30T02:36:30;14.60;99.90
4647;DHT22;2336;47.822;7.564;2023-08-30T02:38:57;14.60;99.90
4647;DHT22;2336;47.822;7.564;2023-08-30T02:41:23;14.60;99.90
4647;DHT22;2336;47.822;7.564;2023-08-30T02:43:50;14.60;99.90
4647;DHT22;2336;47.822;7.564;2023-08-30T02:46:17;14.50;99.90
4647;DHT22;2336;47.822;7.564;2023-08-30T02:48:43;14.50;99.90
4647;DHT22;2336;47.822;7.564;2023-08-30T02:51:12;14.50;99.90
4647;DHT22;2336;47.822;7.564;2023-08-30T02:53:38;14.50;99.90
4647;DHT22;2336;47.822;7.564;2023-08-30T02:56:05;14.50;99.90
4647;DHT22;2336;47.822;7.564;2023-08-30T02:58:32;14.50;99.90
4647;DHT22;2336;47.822;7.564;2023-08-30T03:00:59;14.50;99.90
4647;DHT22;2336;47.822;7.564;2023-08-30T03:03:26;14.50;99.90
4647;DHT22;2336;47.822;7.564;2023-08-30T03:05:53;14.40;99.90
4647;DHT22;2336;47.822;7.564;2023-08-30T03:08:21;14.40;99.90
4647;DHT22;2336;47.822;7.564;2023-08-30T03:10:48;14.40;99.90
4647;DHT22;2336;47.822;7.564;2023-08-30T03:13:15;14.40;99.90
4647;DHT22;2336;47.822;7.564;2023-08-30T03:15:41;14.30;99.90
4647;DHT22;2336;47.822;7.564;2023-08-30T03:18:08;14.30;99.90
4647;DHT22;2336;47.822;7.564;2023-08-30T03:20:35;14.30;99.90
4647;DHT22;2336;47.822;7.564;2023-08-30T03:23:02;14.30;99.90
4647;DHT22;2336;47.822;7.564;2023-08-30T03:25:30;14.30;99.90
4647;DHT22;2336;47.822;7.564;2023-08-30T03:27:57;14.30;99.90
4647;DHT22;2336;47.822;7.564;2023-08-30T03:30:24;14.30;99.90
4647;DHT22;2336;47.822;7.564;2023-08-30T03:32:50;14.30;99.90
4647;DHT22;2336;47.822;7.564;2023-08-30T03:35:17;14.30;99.90
4647;DHT22;2336;47.822;7.564;2023-08-30T03:37:46;14.30;99.90
4647;DHT22;2336;47.822;7.564;2023-08-30T03:40:13;14.30;99.90
4647;DHT22;2336;47.822;7.564;2023-08-30T03:42:41;14.30;99.90
4647;DHT22;2336;47.822;7.564;2023-08-30T03:45:09;14.30;99.90
4647;DHT22;2336;47.822;7.564;2023-08-30T03:47:36;14.30;99.90
4647;DHT22;2336;47.822;7.564;2023-08-30T03:50:03;14.30;99.90
4647;DHT22;2336;47.822;7.564;2023-08-30T03:52:30;14.30;99.90
4647;DHT22;2336;47.822;7.564;2023-08-30T03:54:57;14.30;99.90
4647;DHT22;2336;47.822;7.564;2023-08-30T03:57:23;14.30;99.90
4647;DHT22;2336;47.822;7.564;2023-08-30T03:59:52;14.20;99.90
4647;DHT22;2336;47.822;7.564;2023-08-30T04:02:18;14.20;99.90
4647;DHT22;2336;47.822;7.564;2023-08-30T04:04:46;14.20;99.90
4647;DHT22;2336;47.822;7.564;2023-08-30T04:07:13;14.30;99.90
4647;DHT22;2336;47.822;7.564;2023-08-30T04:09:40;14.30;99.90
4647;DHT22;2336;47.822;7.564;2023-08-30T04:12:07;14.30;99.90
4647;DHT22;2336;47.822;7.564;2023-08-30T04:14:34;14.30;99.90
4647;DHT22;2336;47.822;7.564;2023-08-30T04:17:02;14.30;99.90
4647;DHT22;2336;47.822;7.564;2023-08-30T04:19:29;14.30;99.90
4647;DHT22;2336;47.822;7.564;2023-08-30T04:21:55;14.30;99.90
4647;DHT22;2336;47.822;7.564;2023-08-30T04:24:22;14.30;99.90
4647;DHT22;2336;47.822;7.564;2023-08-30T04:26:49;14.30;99.90
4647;DHT22;2336;47.822;7.564;2023-08-30T04:29:18;14.30;99.90
4647;DHT22;2336;47.822;7.564;2023-08-30T04:31:45;14.30;99.90
4647;DHT22;2336;47.822;7.564;2023-08-30T04:34:13;14.40;99.90
4647;DHT22;2336;47.822;7.564;2023-08-30T04:36:41;14.40;99.90
4647;DHT22;2336;47.822;7.564;2023-08-30T04:39:08;14.40;99.90
4647;DHT22;2336;47.822;7.564;2023-08-30T04:41:36;14.40;99.90
4647;DHT22;2336;47.822;7.564;2023-08-30T04:44:03;14.40;99.90
4647;DHT22;2336;47.822;7.564;2023-08-30T04:46:30;14.40;99.90
4647;DHT22;2336;47.822;7.564;2023-08-30T04:48:56;14.40;99.90
4647;DHT22;2336;47.822;7.564;2023-08-30T04:51:25;14.40;99.90
4647;DHT22;2336;47.822;7.564;2023-08-30T04:53:51;14.40;99.90
4647;DHT22;2336;47.822;7.564;2023-08-30T04:56:18;14.40;99.90
4647;DHT22;2336;47.822;7.564;2023-08-30T04:58:45;14.40;99.90
4647;DHT22;2336;47.822;7.564;2023-08-30T05:01:11;14.40;99.90
4647;DHT22;2336;47.822;7.564;2023-08-30T05:03:40;14.40;99.90
4647;DHT22;2336;47.822;7.564;2023-08-30T05:06:06;14.50;99.90
4647;DHT22;2336;47.822;7.564;2023-08-30T05:08:35;14.50;99.90
4647;DHT22;2336;47.822;7.564;2023-08-30T05:11:01;14.50;99.90
4647;DHT22;2336;47.822;7.564;2023-08-30T05:13:28;14.50;99.90
4647;DHT22;2336;47.822;7.564;2023-08-30T05:15:55;14.60;99.90
4647;DHT22;2336;47.822;7.564;2023-08-30T05:18:22;14.60;99.90
4647;DHT22;2336;47.822;7.564;2023-08-30T05:20:49;14.60;99.90
4647;DHT22;2336;47.822;7.564;2023-08-30T05:23:15;14.60;99.90
4647;DHT22;2336;47.822;7.564;2023-08-30T05:25:44;14.70;99.90
4647;DHT22;2336;47.822;7.564;2023-08-30T05:28:10;14.70;99.90
4647;DHT22;2336;47.822;7.564;2023-08-30T05:30:41;14.70;99.90
4647;DHT22;2336;47.822;7.564;2023-08-30T05:33:07;14.70;99.90
4647;DHT22;2336;47.822;7.564;2023-08-30T05:35:34;14.80;99.90
4647;DHT22;2336;47.822;7.564;2023-08-30T05:38:01;14.80;99.90
4647;DHT22;2336;47.822;7.564;2023-08-30T05:40:28;14.80;99.90
4647;DHT22;2336;47.822;7.564;2023-08-30T05:42:56;14.90;99.90
4647;DHT22;2336;47.822;7.564;2023-08-30T05:45:23;14.90;99.90
4647;DHT22;2336;47.822;7.564;2023-08-30T05:47:49;14.90;99.90
4647;DHT22;2336;47.822;7.564;2023-08-30T05:50:16;14.90;99.90
4647;DHT22;2336;47.822;7.564;2023-08-30T05:52:43;14.90;99.90
4647;DHT22;2336;47.822;7.564;2023-08-30T05:55:10;15.00;99.90
4647;DHT22;2336;47.822;7.564;2023-08-30T05:57:37;15.00;99.90
4647;DHT22;2336;47.822;7.564;2023-08-30T06:00:06;15.00;99.90
4647;DHT22;2336;47.822;7.564;2023-08-30T06:02:34;15.10;99.90
4647;DHT22;2336;47.822;7.564;2023-08-30T06:05:01;15.00;99.90
4647;DHT22;2336;47.822;7.564;2023-08-30T06:07:28;15.10;99.90
4647;DHT22;2336;47.822;7.564;2023-08-30T06:09:55;15.00;99.90
4647;DHT22;2336;47.822;7.564;2023-08-30T06:12:21;15.10;99.90
4647;DHT22;2336;47.822;7.564;2023-08-30T06:14:48;15.10;99.90
4647;DHT22;2336;47.822;7.564;2023-08-30T06:17:19;15.20;99.90
4647;DHT22;2336;47.822;7.564;2023-08-30T06:19:46;15.20;99.90
4647;DHT22;2336;47.822;7.564;2023-08-30T06:22:13;15.10;99.90
4647;DHT22;2336;47.822;7.564;2023-08-30T06:24:39;15.20;99.90
4647;DHT22;2336;47.822;7.564;2023-08-30T06:27:06;15.20;99.90
4647;DHT22;2336;47.822;7.564;2023-08-30T06:29:33;15.20;99.90
4647;DHT22;2336;47.822;7.564;2023-08-30T06:32:00;15.20;99.90
4647;DHT22;2336;47.822;7.564;2023-08-30T06:34:28;15.20;99.90
4647;DHT22;2336;47.822;7.564;2023-08-30T06:36:54;15.20;99.90
4647;DHT22;2336;47.822;7.564;2023-08-30T06:39:21;15.20;99.90
4647;DHT22;2336;47.822;7.564;2023-08-30T06:41:48;15.30;99.90
4647;DHT22;2336;47.822;7.564;2023-08-30T06:44:15;15.30;99.90
4647;DHT22;2336;47.822;7.564;2023-08-30T06:46:42;15.40;99.90
4647;DHT22;2336;47.822;7.564;2023-08-30T06:49:09;15.40;99.90
4647;DHT22;2336;47.822;7.564;2023-08-30T06:51:38;15.40;99.90
4647;DHT22;2336;47.822;7.564;2023-08-30T06:54:05;15.50;99.90
4647;DHT22;2336;47.822;7.564;2023-08-30T06:56:31;15.50;99.90
4647;DHT22;2336;47.822;7.564;2023-08-30T06:58:58;15.50;99.90
4647;DHT22;2336;47.822;7.564;2023-08-30T07:01:25;15.60;99.90
4647;DHT22;2336;47.822;7.564;2023-08-30T07:03:52;15.60;99.90
4647;DHT22;2336;47.822;7.564;2023-08-30T07:06:19;15.70;99.90
4647;DHT22;2336;47.822;7.564;2023-08-30T07:08:47;15.70;99.90
4647;DHT22;2336;47.822;7.564;2023-08-30T07:11:13;15.80;99.90
4647;DHT22;2336;47.822;7.564;2023-08-30T07:13:40;15.80;99.90
4647;DHT22;2336;47.822;7.564;2023-08-30T07:16:07;15.90;99.90
4647;DHT22;2336;47.822;7.564;2023-08-30T07:18:34;15.90;99.90
4647;DHT22;2336;47.822;7.564;2023-08-30T07:21:01;15.90;99.90
4647;DHT22;2336;47.822;7.564;2023-08-30T07:23:28;15.90;99.90
4647;DHT22;2336;47.822;7.564;2023-08-30T07:25:56;15.90;99.90
4647;DHT22;2336;47.822;7.564;2023-08-30T07:28:23;16.00;99.90
4647;DHT22;2336;47.822;7.564;2023-08-30T07:30:50;16.00;99.90
4647;DHT22;2336;47.822;7.564;2023-08-30T07:33:16;16.00;99.90
4647;DHT22;2336;47.822;7.564;2023-08-30T07:35:43;16.00;99.90
4647;DHT22;2336;47.822;7.564;2023-08-30T07:38:10;16.10;99.90
4647;DHT22;2336;47.822;7.564;2023-08-30T07:40:37;16.10;99.90
4647;DHT22;2336;47.822;7.564;2023-08-30T07:43:05;16.10;99.90
4647;DHT22;2336;47.822;7.564;2023-08-30T07:45:32;16.20;99.90
4647;DHT22;2336;47.822;7.564;2023-08-30T07:47:59;16.20;99.90
4647;DHT22;2336;47.822;7.564;2023-08-30T07:50:25;16.30;99.90
4647;DHT22;2336;47.822;7.564;2023-08-30T07:52:52;16.40;99.90
4647;DHT22;2336;47.822;7.564;2023-08-30T07:55:19;16.40;99.90
4647;DHT22;2336;47.822;7.564;2023-08-30T07:57:46;16.40;99.90
4647;DHT22;2336;47.822;7.564;2023-08-30T08:00:15;16.40;99.90
4647;DHT22;2336;47.822;7.564;2023-08-30T08:02:42;16.40;99.90
4647;DHT22;2336;47.822;7.564;2023-08-30T08:05:09;16.50;99.90
4647;DHT22;2336;47.822;7.564;2023-08-30T08:07:38;16.60;99.90
4647;DHT22;2336;47.822;7.564;2023-08-30T08:10:06;16.50;99.90
4647;DHT22;2336;47.822;7.564;2023-08-30T08:12:33;16.60;99.90
4647;DHT22;2336;47.822;7.564;2023-08-30T08:15:00;16.60;99.90
4647;DHT22;2336;47.822;7.564;2023-08-30T08:17:29;16.70;99.90
4647;DHT22;2336;47.822;7.564;2023-08-30T08:19:56;16.80;99.90
4647;DHT22;2336;47.822;7.564;2023-08-30T08:22:24;16.80;99.90
4647;DHT22;2336;47.822;7.564;2023-08-30T08:24:53;16.90;99.90
4647;DHT22;2336;47.822;7.564;2023-08-30T08:27:21;17.00;99.90
4647;DHT22;2336;47.822;7.564;2023-08-30T08:29:48;17.10;99.90
4647;DHT22;2336;47.822;7.564;2023-08-30T08:32:15;17.20;99.90
4647;DHT22;2336;47.822;7.564;2023-08-30T08:34:43;17.20;99.90
4647;DHT22;2336;47.822;7.564;2023-08-30T08:37:10;17.20;99.90
4647;DHT22;2336;47.822;7.564;2023-08-30T08:39:37;17.20;99.90
4647;DHT22;2336;47.822;7.564;2023-08-30T08:42:04;17.30;99.90
4647;DHT22;2336;47.822;7.564;2023-08-30T08:44:32;17.30;99.90
4647;DHT22;2336;47.822;7.564;2023-08-30T08:46:59;17.40;99.90
4647;DHT22;2336;47.822;7.564;2023-08-30T08:49:28;17.50;99.90
4647;DHT22;2336;47.822;7.564;2023-08-30T08:51:58;17.60;99.90
4647;DHT22;2336;47.822;7.564;2023-08-30T08:54:25;17.50;99.90
4647;DHT22;2336;47.822;7.564;2023-08-30T08:56:53;17.50;99.90
4647;DHT22;2336;47.822;7.564;2023-08-30T08:59:21;17.40;99.90
4647;DHT22;2336;47.822;7.564;2023-08-30T09:01:49;17.40;99.90
4647;DHT22;2336;47.822;7.564;2023-08-30T09:04:16;17.40;99.90
4647;DHT22;2336;47.822;7.564;2023-08-30T09:06:43;17.50;99.90
4647;DHT22;2336;47.822;7.564;2023-08-30T09:09:12;17.50;99.90
4647;DHT22;2336;47.822;7.564;2023-08-30T09:11:39;17.50;99.90
4647;DHT22;2336;47.822;7.564;2023-08-30T09:14:06;17.50;99.90
4647;DHT22;2336;47.822;7.564;2023-08-30T09:16:34;17.60;99.90
4647;DHT22;2336;47.822;7.564;2023-08-30T09:19:03;17.70;99.90
4647;DHT22;2336;47.822;7.564;2023-08-30T09:21:30;17.80;99.90
4647;DHT22;2336;47.822;7.564;2023-08-30T09:23:58;17.80;99.90
4647;DHT22;2336;47.822;7.564;2023-08-30T09:26:26;17.70;99.90
4647;DHT22;2336;47.822;7.564;2023-08-30T09:28:55;17.90;99.90
4647;DHT22;2336;47.822;7.564;2023-08-30T09:31:21;17.90;99.90
4647;DHT22;2336;47.822;7.564;2023-08-30T09:33:48;17.90;99.90
4647;DHT22;2336;47.822;7.564;2023-08-30T09:36:15;17.90;99.90
4647;DHT22;2336;47.822;7.564;2023-08-30T09:38:48;17.90;99.90
4647;DHT22;2336;47.822;7.564;2023-08-30T09:41:16;17.90;99.90
4647;DHT22;2336;47.822;7.564;2023-08-30T09:43:45;18.00;99.90
4647;DHT22;2336;47.822;7.564;2023-08-30T09:46:13;18.10;99.90
4647;DHT22;2336;47.822;7.564;2023-08-30T09:48:40;18.20;99.90
4647;DHT22;2336;47.822;7.564;2023-08-30T09:51:08;18.20;99.90
4647;DHT22;2336;47.822;7.564;2023-08-30T09:53:40;18.30;99.90
4647;DHT22;2336;47.822;7.564;2023-08-30T09:56:11;18.40;99.90
4647;DHT22;2336;47.822;7.564;2023-08-30T09:58:40;18.50;99.90
4647;DHT22;2336;47.822;7.564;2023-08-30T10:01:09;18.60;99.90
4647;DHT22;2336;47.822;7.564;2023-08-30T10:03:36;18.80;99.90
4647;DHT22;2336;47.822;7.564;2023-08-30T10:06:03;18.90;99.90
4647;DHT22;2336;47.822;7.564;2023-08-30T10:08:32;18.80;99.90
4647;DHT22;2336;47.822;7.564;2023-08-30T10:11:02;18.90;99.90
4647;DHT22;2336;47.822;7.564;2023-08-30T10:13:29;19.00;99.90
4647;DHT22;2336;47.822;7.564;2023-08-30T10:16:00;19.20;99.90
4647;DHT22;2336;47.822;7.564;2023-08-30T10:18:32;19.20;99.90
4647;DHT22;2336;47.822;7.564;2023-08-30T10:21:02;19.30;99.90
4647;DHT22;2336;47.822;7.564;2023-08-30T10:23:32;19.50;99.90
4647;DHT22;2336;47.822;7.564;2023-08-30T10:26:00;19.70;99.90
4647;DHT22;2336;47.822;7.564;2023-08-30T10:28:28;19.90;99.90
4647;DHT22;2336;47.822;7.564;2023-08-30T10:30:55;20.10;99.90
4647;DHT22;2336;47.822;7.564;2023-08-30T10:33:22;20.30;99.90
4647;DHT22;2336;47.822;7.564;2023-08-30T10:35:52;20.60;99.90
4647;DHT22;2336;47.822;7.564;2023-08-30T10:38:25;20.50;99.90
4647;DHT22;2336;47.822;7.564;2023-08-30T10:40:53;20.60;99.90
4647;DHT22;2336;47.822;7.564;2023-08-30T10:43:28;20.70;99.90
4647;DHT22;2336;47.822;7.564;2023-08-30T10:46:01;20.60;99.90
4647;DHT22;2336;47.822;7.564;2023-08-30T10:48:35;20.50;99.90
4647;DHT22;2336;47.822;7.564;2023-08-30T10:51:06;20.60;99.90
4647;DHT22;2336;47.822;7.564;2023-08-30T10:53:33;20.70;99.90
4647;DHT22;2336;47.822;7.564;2023-08-30T10:56:10;20.80;99.90
4647;DHT22;2336;47.822;7.564;2023-08-30T10:58:41;21.00;99.90
4647;DHT22;2336;47.822;7.564;2023-08-30T11:01:10;21.20;99.90
4647;DHT22;2336;47.822;7.564;2023-08-30T11:03:37;21.10;99.90
4647;DHT22;2336;47.822;7.564;2023-08-30T11:06:06;21.00;99.90
4647;DHT22;2336;47.822;7.564;2023-08-30T11:08:33;21.10;99.90
4647;DHT22;2336;47.822;7.564;2023-08-30T11:11:05;21.20;99.90
4647;DHT22;2336;47.822;7.564;2023-08-30T11:13:32;21.40;99.90
4647;DHT22;2336;47.822;7.564;2023-08-30T11:16:03;21.30;99.90
4647;DHT22;2336;47.822;7.564;2023-08-30T11:18:30;21.30;99.90
4647;DHT22;2336;47.822;7.564;2023-08-30T11:21:01;21.40;99.90
4647;DHT22;2336;47.822;7.564;2023-08-30T11:23:30;21.50;99.90
4647;DHT22;2336;47.822;7.564;2023-08-30T11:25:57;21.50;99.90
4647;DHT22;2336;47.822;7.564;2023-08-30T11:28:25;21.80;99.90
4647;DHT22;2336;47.822;7.564;2023-08-30T11:30:53;22.10;99.90
4647;DHT22;2336;47.822;7.564;2023-08-30T11:33:20;22.20;99.90
4647;DHT22;2336;47.822;7.564;2023-08-30T11:35:49;22.50;99.90
4647;DHT22;2336;47.822;7.564;2023-08-30T11:38:18;22.40;99.90
4647;DHT22;2336;47.822;7.564;2023-08-30T11:40:49;22.60;99.90
4647;DHT22;2336;47.822;7.564;2023-08-30T11:43:16;22.70;99.90
4647;DHT22;2336;47.822;7.564;2023-08-30T11:45:43;22.90;99.90
4647;DHT22;2336;47.822;7.564;2023-08-30T11:48:10;23.00;99.90
4647;DHT22;2336;47.822;7.564;2023-08-30T11:50:38;22.90;99.90
4647;DHT22;2336;47.822;7.564;2023-08-30T11:53:05;23.20;99.90
4647;DHT22;2336;47.822;7.564;2023-08-30T11:55:32;22.90;99.90
4647;DHT22;2336;47.822;7.564;2023-08-30T11:58:00;22.60;99.90
4647;DHT22;2336;47.822;7.564;2023-08-30T12:00:28;22.40;99.90
4647;DHT22;2336;47.822;7.564;2023-08-30T12:02:59;22.60;99.90
4647;DHT22;2336;47.822;7.564;2023-08-30T12:05:26;22.60;99.90
4647;DHT22;2336;47.822;7.564;2023-08-30T12:07:53;22.70;99.90
4647;DHT22;2336;47.822;7.564;2023-08-30T12:10:19;23.00;99.90
4647;DHT22;2336;47.822;7.564;2023-08-30T12:12:46;23.20;99.90
4647;DHT22;2336;47.822;7.564;2023-08-30T12:15:15;23.40;99.90
4647;DHT22;2336;47.822;7.564;2023-08-30T12:17:42;23.30;99.90
4647;DHT22;2336;47.822;7.564;2023-08-30T12:20:24;23.60;99.90
4647;DHT22;2336;47.822;7.564;2023-08-30T12:22:53;24.00;99.90
4647;DHT22;2336;47.822;7.564;2023-08-30T12:25:21;24.00;99.90
4647;DHT22;2336;47.822;7.564;2023-08-30T12:27:48;24.00;99.90
4647;DHT22;2336;47.822;7.564;2023-08-30T12:30:17;24.00;99.90
4647;DHT22;2336;47.822;7.564;2023-08-30T12:32:44;23.80;99.90
4647;DHT22;2336;47.822;7.564;2023-08-30T12:35:11;23.80;99.90
4647;DHT22;2336;47.822;7.564;2023-08-30T12:37:40;23.60;99.90
4647;DHT22;2336;47.822;7.564;2023-08-30T12:40:09;23.40;99.90
4647;DHT22;2336;47.822;7.564;2023-08-30T12:42:37;23.40;99.90
4647;DHT22;2336;47.822;7.564;2023-08-30T12:45:05;23.20;99.90
4647;DHT22;2336;47.822;7.564;2023-08-30T12:47:34;22.80;99.90
4647;DHT22;2336;47.822;7.564;2023-08-30T12:50:02;22.60;99.90
4647;DHT22;2336;47.822;7.564;2023-08-30T12:52:30;22.50;99.90
4647;DHT22;2336;47.822;7.564;2023-08-30T12:54:57;22.20;99.90
4647;DHT22;2336;47.822;7.564;2023-08-30T12:57:24;22.00;99.90
4647;DHT22;2336;47.822;7.564;2023-08-30T12:59:51;21.70;99.90
4647;DHT22;2336;47.822;7.564;2023-08-30T13:02:18;21.40;99.90
4647;DHT22;2336;47.822;7.564;2023-08-30T13:04:47;21.40;99.90
4647;DHT22;2336;47.822;7.564;2023-08-30T13:07:14;21.40;99.90
4647;DHT22;2336;47.822;7.564;2023-08-30T13:09:41;21.60;99.90
4647;DHT22;2336;47.822;7.564;2023-08-30T13:12:08;21.80;99.90
4647;DHT22;2336;47.822;7.564;2023-08-30T13:14:35;22.10;99.90
4647;DHT22;2336;47.822;7.564;2023-08-30T13:17:02;22.60;99.90
4647;DHT22;2336;47.822;7.564;2023-08-30T13:19:29;22.80;99.90
4647;DHT22;2336;47.822;7.564;2023-08-30T13:21:58;22.80;99.90
4647;DHT22;2336;47.822;7.564;2023-08-30T13:24:28;22.80;99.90
4647;DHT22;2336;47.822;7.564;2023-08-30T13:26:58;22.80;99.90
4647;DHT22;2336;47.822;7.564;2023-08-30T13:29:25;22.90;99.90
4647;DHT22;2336;47.822;7.564;2023-08-30T13:31:52;23.10;99.90
4647;DHT22;2336;47.822;7.564;2023-08-30T13:34:19;23.20;99.90
4647;DHT22;2336;47.822;7.564;2023-08-30T13:36:46;23.00;99.40
4647;DHT22;2336;47.822;7.564;2023-08-30T13:39:15;23.10;99.90
4647;DHT22;2336;47.822;7.564;2023-08-30T13:41:41;23.20;97.60
4647;DHT22;2336;47.822;7.564;2023-08-30T13:44:08;23.20;98.10
4647;DHT22;2336;47.822;7.564;2023-08-30T13:46:35;23.20;99.40
4647;DHT22;2336;47.822;7.564;2023-08-30T13:49:02;23.10;99.70
4647;DHT22;2336;47.822;7.564;2023-08-30T13:51:29;23.20;99.90
4647;DHT22;2336;47.822;7.564;2023-08-30T13:53:57;23.20;99.20
4647;DHT22;2336;47.822;7.564;2023-08-30T13:56:25;23.20;98.40
4647;DHT22;2336;47.822;7.564;2023-08-30T13:58:55;23.20;99.30
4647;DHT22;2336;47.822;7.564;2023-08-30T14:01:22;23.20;99.30
4647;DHT22;2336;47.822;7.564;2023-08-30T14:03:49;23.20;99.50
4647;DHT22;2336;47.822;7.564;2023-08-30T14:06:16;23.30;99.90
4647;DHT22;2336;47.822;7.564;2023-08-30T14:08:44;23.30;99.30
4647;DHT22;2336;47.822;7.564;2023-08-30T14:11:11;23.40;99.60
4647;DHT22;2336;47.822;7.564;2023-08-30T14:13:40;23.40;98.20
4647;DHT22;2336;47.822;7.564;2023-08-30T14:16:08;23.50;97.30
4647;DHT22;2336;47.822;7.564;2023-08-30T14:18:37;23.60;97.40
4647;DHT22;2336;47.822;7.564;2023-08-30T14:21:05;23.30;98.90
4647;DHT22;2336;47.822;7.564;2023-08-30T14:23:33;23.40;97.40
4647;DHT22;2336;47.822;7.564;2023-08-30T14:26:04;23.50;96.90
4647;DHT22;2336;47.822;7.564;2023-08-30T14:28:34;23.40;96.90
4647;DHT22;2336;47.822;7.564;2023-08-30T14:31:05;23.30;97.00
4647;DHT22;2336;47.822;7.564;2023-08-30T14:33:33;23.20;96.90
4647;DHT22;2336;47.822;7.564;2023-08-30T14:36:00;23.20;96.50
4647;DHT22;2336;47.822;7.564;2023-08-30T14:38:28;23.20;96.70
4647;DHT22;2336;47.822;7.564;2023-08-30T14:40:55;23.20;96.70
4647;DHT22;2336;47.822;7.564;2023-08-30T14:43:22;23.10;95.80
4647;DHT22;2336;47.822;7.564;2023-08-30T14:45:49;23.10;95.80
4647;DHT22;2336;47.822;7.564;2023-08-30T14:48:17;23.10;96.60
4647;DHT22;2336;47.822;7.564;2023-08-30T14:50:44;23.00;95.00
4647;DHT22;2336;47.822;7.564;2023-08-30T14:53:16;23.10;95.50
4647;DHT22;2336;47.822;7.564;2023-08-30T14:55:44;22.90;96.30
4647;DHT22;2336;47.822;7.564;2023-08-30T14:58:11;22.90;96.90
4647;DHT22;2336;47.822;7.564;2023-08-30T15:00:38;23.00;95.90
4647;DHT22;2336;47.822;7.564;2023-08-30T15:03:05;23.00;95.10
4647;DHT22;2336;47.822;7.564;2023-08-30T15:05:34;22.90;96.60
4647;DHT22;2336;47.822;7.564;2023-08-30T15:08:01;22.80;95.60
4647;DHT22;2336;47.822;7.564;2023-08-30T15:10:27;22.90;95.30
4647;DHT22;2336;47.822;7.564;2023-08-30T15:12:54;22.90;95.60
4647;DHT22;2336;47.822;7.564;2023-08-30T15:15:21;22.70;96.50
4647;DHT22;2336;47.822;7.564;2023-08-30T15:17:48;22.80;96.20
4647;DHT22;2336;47.822;7.564;2023-08-30T15:20:15;22.70;96.30
4647;DHT22;2336;47.822;7.564;2023-08-30T15:22:43;22.70;96.30
4647;DHT22;2336;47.822;7.564;2023-08-30T15:25:10;22.60;96.30
4647;DHT22;2336;47.822;7.564;2023-08-30T15:27:36;22.50;97.30
4647;DHT22;2336;47.822;7.564;2023-08-30T15:30:05;22.60;96.80
4647;DHT22;2336;47.822;7.564;2023-08-30T15:32:32;22.60;97.40
4647;DHT22;2336;47.822;7.564;2023-08-30T15:34:58;22.60;98.10
4647;DHT22;2336;47.822;7.564;2023-08-30T15:37:25;22.60;97.50
4647;DHT22;2336;47.822;7.564;2023-08-30T15:39:59;22.60;98.10
4647;DHT22;2336;47.822;7.564;2023-08-30T15:42:29;22.50;96.90
4647;DHT22;2336;47.822;7.564;2023-08-30T15:44:56;22.50;98.20
4647;DHT22;2336;47.822;7.564;2023-08-30T15:47:22;22.40;98.40
4647;DHT22;2336;47.822;7.564;2023-08-30T15:49:49;22.40;97.70
4647;DHT22;2336;47.822;7.564;2023-08-30T15:52:16;22.40;97.20
4647;DHT22;2336;47.822;7.564;2023-08-30T15:54:43;22.40;97.90
4647;DHT22;2336;47.822;7.564;2023-08-30T15:57:11;22.30;98.50
4647;DHT22;2336;47.822;7.564;2023-08-30T15:59:37;22.20;97.80
4647;DHT22;2336;47.822;7.564;2023-08-30T16:02:04;22.20;96.60
4647;DHT22;2336;47.822;7.564;2023-08-30T16:04:31;22.10;97.30